Terminal Aerodrome Forecast
Issued by NWS

Home | Current Version | Previous Version | Text Only | Print | Product List | Glossary On
Versions: 1 2 3 4 5 6 7 8 9 10 11 12 13 14 15 16 17 18 19 20
000
FTUS46 KMTR 021735
TAFSNS
TAF
KSNS 021735Z 0218/0318 27005KT P6SM BKN150
     FM022100 29012KT P6SM SCT180
     FM030300 29006KT P6SM OVC005
     FM030500 29004KT P6SM OVC003
     FM031100 VRB03KT 1SM BR OVC003
     FM031600 VRB03KT P6SM OVC007=

USA.gov is the U.S. government's official web portal to all federal, state and local government web resources and services.